createdAt,value
2019-01-26T00:01:00.000Z,98431
2019-01-26T00:06:00.000Z,98429
2019-01-26T00:11:00.000Z,98422
2019-01-26T00:16:00.000Z,98414
2019-01-26T00:21:00.000Z,98432
2019-01-26T00:26:00.000Z,98414
2019-01-26T00:31:00.000Z,98404
2019-01-26T00:36:00.000Z,98410
2019-01-26T00:41:00.000Z,98390
2019-01-26T00:46:00.000Z,98410
2019-01-26T00:51:00.000Z,98386
2019-01-26T00:56:00.000Z,98387
2019-01-26T01:01:00.000Z,98412
2019-01-26T01:06:00.000Z,98390
2019-01-26T01:11:00.000Z,98384
2019-01-26T01:16:00.000Z,98381
2019-01-26T01:21:00.000Z,98391
2019-01-26T01:26:00.000Z,98387
2019-01-26T01:31:00.000Z,98365
2019-01-26T01:36:00.000Z,98373
2019-01-26T01:41:00.000Z,98367
2019-01-26T01:46:00.000Z,98356
2019-01-26T01:51:00.000Z,98359
2019-01-26T01:56:00.000Z,98338
2019-01-26T02:01:00.000Z,98333
2019-01-26T02:06:00.000Z,98313
2019-01-26T02:11:00.000Z,98290
2019-01-26T02:16:00.000Z,98308
2019-01-26T02:21:00.000Z,98315
2019-01-26T02:26:00.000Z,98310
2019-01-26T02:31:00.000Z,98310
2019-01-26T02:36:00.000Z,98320
2019-01-26T02:41:00.000Z,98319
2019-01-26T02:46:00.000Z,98306
2019-01-26T02:51:00.000Z,98301
2019-01-26T02:56:00.000Z,98302
2019-01-26T03:02:00.000Z,98283
2019-01-26T03:07:00.000Z,98287
2019-01-26T03:12:00.000Z,98284
2019-01-26T03:17:00.000Z,98275
2019-01-26T03:22:00.000Z,98258
2019-01-26T03:27:00.000Z,98262
2019-01-26T03:32:00.000Z,98249
2019-01-26T03:37:00.000Z,98264
2019-01-26T03:42:00.000Z,98233
2019-01-26T03:47:00.000Z,98226
2019-01-26T03:52:00.000Z,98212
2019-01-26T03:57:00.000Z,98198
2019-01-26T04:02:00.000Z,98184
2019-01-26T04:07:00.000Z,98197
2019-01-26T04:12:00.000Z,98221
2019-01-26T04:17:00.000Z,98212
2019-01-26T04:22:00.000Z,98212
2019-01-26T04:27:00.000Z,98212
2019-01-26T04:32:00.000Z,98195
2019-01-26T04:37:00.000Z,98202
2019-01-26T04:42:00.000Z,98180
2019-01-26T04:47:00.000Z,98164
2019-01-26T04:52:00.000Z,98156
2019-01-26T04:57:00.000Z,98147
2019-01-26T05:02:00.000Z,98147
2019-01-26T05:07:00.000Z,98121
2019-01-26T05:12:00.000Z,98124
2019-01-26T05:17:00.000Z,98121
2019-01-26T05:22:00.000Z,98128
2019-01-26T05:27:00.000Z,98095
2019-01-26T05:32:00.000Z,98109
2019-01-26T05:37:00.000Z,98096
2019-01-26T05:42:00.000Z,98077
2019-01-26T05:47:00.000Z,98076
2019-01-26T05:52:00.000Z,98065
2019-01-26T05:57:00.000Z,98057
2019-01-26T06:02:00.000Z,98044
2019-01-26T06:07:00.000Z,98029
2019-01-26T06:12:00.000Z,98005
2019-01-26T06:17:00.000Z,97998
2019-01-26T06:22:00.000Z,98005
2019-01-26T06:27:00.000Z,98006
2019-01-26T06:32:00.000Z,98014
2019-01-26T06:37:00.000Z,97996
2019-01-26T06:42:00.000Z,97987
2019-01-26T06:47:00.000Z,97985
2019-01-26T06:53:00.000Z,97991
2019-01-26T06:58:00.000Z,97993
2019-01-26T07:03:00.000Z,98005
2019-01-26T07:08:00.000Z,98016
2019-01-26T07:13:00.000Z,97999
2019-01-26T07:18:00.000Z,98009
2019-01-26T07:23:00.000Z,98008
2019-01-26T07:28:00.000Z,98012
2019-01-26T07:33:00.000Z,98026
2019-01-26T07:38:00.000Z,98013
2019-01-26T07:43:00.000Z,98022
2019-01-26T07:48:00.000Z,98022
2019-01-26T07:53:00.000Z,98016
2019-01-26T07:58:00.000Z,97998
2019-01-26T08:03:00.000Z,98015
2019-01-26T08:08:00.000Z,98007
2019-01-26T08:13:00.000Z,97991
2019-01-26T08:18:00.000Z,97991
2019-01-26T08:23:00.000Z,98004
2019-01-26T08:28:00.000Z,97999
2019-01-26T08:33:00.000Z,97981
2019-01-26T08:38:00.000Z,98001
2019-01-26T08:43:00.000Z,98002
2019-01-26T08:48:00.000Z,97998
2019-01-26T08:53:00.000Z,98012
2019-01-26T08:58:00.000Z,97991
2019-01-26T09:03:00.000Z,98002
2019-01-26T09:08:00.000Z,98008
2019-01-26T09:13:00.000Z,97994
2019-01-26T09:18:00.000Z,97995
2019-01-26T09:23:00.000Z,98000
2019-01-26T09:28:00.000Z,97989
2019-01-26T09:33:00.000Z,97969
2019-01-26T09:38:00.000Z,97967
2019-01-26T09:43:00.000Z,97988
2019-01-26T09:48:00.000Z,97957
2019-01-26T09:53:00.000Z,97958
2019-01-26T09:58:00.000Z,97951
2019-01-26T10:03:00.000Z,97961
2019-01-26T10:08:00.000Z,97939
2019-01-26T10:13:00.000Z,97940
2019-01-26T10:18:00.000Z,97937
2019-01-26T10:23:00.000Z,97926
2019-01-26T10:28:00.000Z,97927
2019-01-26T10:33:00.000Z,97922
2019-01-26T10:38:00.000Z,97907
2019-01-26T10:43:00.000Z,97911
2019-01-26T10:48:00.000Z,97894
2019-01-26T10:54:00.000Z,97911
2019-01-26T10:59:00.000Z,97900
2019-01-26T11:04:00.000Z,97901
2019-01-26T11:09:00.000Z,97896
2019-01-26T11:14:00.000Z,97888
2019-01-26T11:19:00.000Z,97897
2019-01-26T11:24:00.000Z,97878
2019-01-26T11:29:00.000Z,97866
2019-01-26T11:34:00.000Z,97855
2019-01-26T11:39:00.000Z,97848
2019-01-26T11:44:00.000Z,97844
2019-01-26T11:49:00.000Z,97855
2019-01-26T11:54:00.000Z,97855
2019-01-26T11:59:00.000Z,97861
2019-01-26T12:04:00.000Z,97817
2019-01-26T12:09:00.000Z,97827
2019-01-26T12:14:00.000Z,97819
2019-01-26T12:19:00.000Z,97810
2019-01-26T12:24:00.000Z,97793
2019-01-26T12:29:00.000Z,97796
2019-01-26T12:34:00.000Z,97785
2019-01-26T12:39:00.000Z,97788
2019-01-26T12:44:00.000Z,97768
2019-01-26T12:49:00.000Z,97774
2019-01-26T12:54:00.000Z,97769
2019-01-26T12:59:00.000Z,97762
2019-01-26T13:04:00.000Z,97753
2019-01-26T13:09:00.000Z,97756
2019-01-26T13:14:00.000Z,97759
2019-01-26T13:19:00.000Z,97758
2019-01-26T13:24:00.000Z,97751
2019-01-26T13:29:00.000Z,97756
2019-01-26T13:34:00.000Z,97755
2019-01-26T13:39:00.000Z,97749
2019-01-26T13:44:00.000Z,97754
2019-01-26T13:49:00.000Z,97748
2019-01-26T13:54:00.000Z,97736
2019-01-26T13:59:00.000Z,97745
2019-01-26T14:04:00.000Z,97736
2019-01-26T14:09:00.000Z,97727
2019-01-26T14:14:00.000Z,97729
2019-01-26T14:19:00.000Z,97716
2019-01-26T14:24:00.000Z,97705
2019-01-26T14:29:00.000Z,97706
2019-01-26T14:34:00.000Z,97717
2019-01-26T14:39:00.000Z,97710
2019-01-26T14:44:00.000Z,97709
2019-01-26T14:49:00.000Z,97699
2019-01-26T14:54:00.000Z,97698
2019-01-26T15:00:00.000Z,97707
2019-01-26T15:05:00.000Z,97690
2019-01-26T15:10:00.000Z,97688
2019-01-26T15:15:00.000Z,97680
2019-01-26T15:20:00.000Z,97671
2019-01-26T15:25:00.000Z,97664
2019-01-26T15:30:00.000Z,97681
2019-01-26T15:35:00.000Z,97666
2019-01-26T15:40:00.000Z,97675
2019-01-26T15:45:00.000Z,97665
2019-01-26T15:50:00.000Z,97667
2019-01-26T15:55:00.000Z,97670
2019-01-26T16:00:00.000Z,97673
2019-01-26T16:05:00.000Z,97701
2019-01-26T16:10:00.000Z,97693
2019-01-26T16:15:00.000Z,97701
2019-01-26T16:20:00.000Z,97711
2019-01-26T16:25:00.000Z,97697
2019-01-26T16:30:00.000Z,97700
2019-01-26T16:35:00.000Z,97706
2019-01-26T16:40:00.000Z,97710
2019-01-26T16:45:00.000Z,97694
2019-01-26T16:50:00.000Z,97709
2019-01-26T16:55:00.000Z,97710
2019-01-26T17:00:00.000Z,97704
2019-01-26T17:05:00.000Z,97700
2019-01-26T17:10:00.000Z,97710
2019-01-26T17:15:00.000Z,97696
2019-01-26T17:20:00.000Z,97694
2019-01-26T17:25:00.000Z,97683
2019-01-26T17:30:00.000Z,97695
2019-01-26T17:35:00.000Z,97693
2019-01-26T17:40:00.000Z,97700
2019-01-26T17:45:00.000Z,97706
2019-01-26T17:50:00.000Z,97707
2019-01-26T17:55:00.000Z,97688
2019-01-26T18:00:00.000Z,97690
2019-01-26T18:05:00.000Z,97692
2019-01-26T18:10:00.000Z,97696
2019-01-26T18:15:00.000Z,97688
2019-01-26T18:20:00.000Z,97696
2019-01-26T18:25:00.000Z,97697
2019-01-26T18:30:00.000Z,97705
2019-01-26T18:35:00.000Z,97704
2019-01-26T18:40:00.000Z,97687
2019-01-26T18:45:00.000Z,97702
2019-01-26T18:50:00.000Z,97700
2019-01-26T18:55:00.000Z,97694
2019-01-26T19:00:00.000Z,97693
2019-01-26T19:05:00.000Z,97682
2019-01-26T19:10:00.000Z,97693
2019-01-26T19:16:00.000Z,97689
2019-01-26T19:21:00.000Z,97681
2019-01-26T19:26:00.000Z,97681
2019-01-26T19:31:00.000Z,97684
2019-01-26T19:36:00.000Z,97680
2019-01-26T19:41:00.000Z,97684
2019-01-26T19:46:00.000Z,97676
2019-01-26T19:51:00.000Z,97686
2019-01-26T19:56:00.000Z,97672
2019-01-26T20:01:00.000Z,97683
2019-01-26T20:06:00.000Z,97668
2019-01-26T20:11:00.000Z,97679
2019-01-26T20:16:00.000Z,97670
2019-01-26T20:21:00.000Z,97687
2019-01-26T20:26:00.000Z,97682
2019-01-26T20:31:00.000Z,97682
2019-01-26T20:36:00.000Z,97681
2019-01-26T20:41:00.000Z,97671
2019-01-26T20:46:00.000Z,97679
2019-01-26T20:51:00.000Z,97673
2019-01-26T20:56:00.000Z,97675
2019-01-26T21:01:00.000Z,97681
2019-01-26T21:06:00.000Z,97666
2019-01-26T21:11:00.000Z,97673
2019-01-26T21:16:00.000Z,97687
2019-01-26T21:21:00.000Z,97674
2019-01-26T21:26:00.000Z,97687
2019-01-26T21:31:00.000Z,97695
2019-01-26T21:36:00.000Z,97689
2019-01-26T21:41:00.000Z,97687
2019-01-26T21:46:00.000Z,97686
2019-01-26T21:51:00.000Z,97694
2019-01-26T21:56:00.000Z,97671
2019-01-26T22:01:00.000Z,97684
2019-01-26T22:06:00.000Z,97690
2019-01-26T22:11:00.000Z,97687
2019-01-26T22:16:00.000Z,97680
2019-01-26T22:21:00.000Z,97700
2019-01-26T22:26:00.000Z,97686
2019-01-26T22:31:00.000Z,97679
2019-01-26T22:36:00.000Z,97663
2019-01-26T22:41:00.000Z,97678
2019-01-26T22:46:00.000Z,97657
2019-01-26T22:51:00.000Z,97663
2019-01-26T22:56:00.000Z,97676
2019-01-26T23:01:00.000Z,97657
2019-01-26T23:06:00.000Z,97646
2019-01-26T23:11:00.000Z,97645
2019-01-26T23:16:00.000Z,97655
2019-01-26T23:21:00.000Z,97648
2019-01-26T23:26:00.000Z,97628
2019-01-26T23:31:00.000Z,97635
2019-01-26T23:37:00.000Z,97639
2019-01-26T23:42:00.000Z,97646
2019-01-26T23:47:00.000Z,97652
2019-01-26T23:52:00.000Z,97643
2019-01-26T23:57:00.000Z,97642
